Time;durP1;ratioP1;P1;durP2;ratioP2;P2;SDS_P1;SDS_P2;PMS_P1;PMS_P2;Temp;Humidity;BMP_temperature;BMP_pressure;BME280_temperature;BME280_humidity;BME280_pressure;Samples;Min_cycle;Max_cycle;Signal;HPM_P1;HPM_P2
2022/01/18 00:00:27;;;;;;;68.28;8.55;;;;;;;;;;4985638;28;20455;-86
2022/01/18 00:02:54;;;;;;;79.30;8.68;;;;;;;;;;4970225;28;20070;-85
2022/01/18 00:05:20;;;;;;;87.40;8.75;;;;;;;;;;4984899;28;20462;-86
2022/01/18 00:07:47;;;;;;;64.32;7.85;;;;;;;;;;4984165;28;20517;-87
2022/01/18 00:10:14;;;;;;;81.82;9.77;;;;;;;;;;5002407;28;21077;-85
2022/01/18 00:18:28;;;;;;;88.20;10.05;;;;;;;;;;4986946;28;20144;-85
2022/01/18 00:23:53;;;;;;;81.47;11.32;;;;;;;;;;5002158;28;20124;-86
2022/01/18 00:26:19;;;;;;;74.65;8.73;;;;;;;;;;4986059;28;20040;-85
2022/01/18 00:28:51;;;;;;;82.95;8.27;;;;;;;;;;4984630;28;20594;-86
2022/01/18 00:34:09;;;;;;;70.55;8.38;;;;;;;;;;4960178;28;20042;-86
2022/01/18 00:36:54;;;;;;;74.88;8.15;;;;;;;;;;4967982;28;20494;-86
2022/01/18 00:39:21;;;;;;;91.38;9.75;;;;;;;;;;4987016;28;20069;-85
2022/01/18 00:41:47;;;;;;;73.57;8.95;;;;;;;;;;4966056;28;20046;-85
2022/01/18 00:44:14;;;;;;;74.47;9.48;;;;;;;;;;5002822;28;20228;-86
2022/01/18 00:46:40;;;;;;;88.45;8.93;;;;;;;;;;5004538;28;20050;-85
2022/01/18 00:49:07;;;;;;;82.85;9.68;;;;;;;;;;4972145;28;20045;-87
2022/01/18 00:51:37;;;;;;;81.18;7.75;;;;;;;;;;4971242;28;20137;-86
2022/01/18 00:54:04;;;;;;;76.50;9.27;;;;;;;;;;5008345;28;20045;-86
2022/01/18 00:56:31;;;;;;;66.85;7.55;;;;;;;;;;5006819;28;20045;-85
2022/01/18 00:58:58;;;;;;;83.32;7.38;;;;;;;;;;5005608;28;20061;-85
2022/01/18 01:01:34;;;;;;;68.38;8.07;;;;;;;;;;4974165;28;20133;-86
2022/01/18 01:04:03;;;;;;;77.75;7.07;;;;;;;;;;4989276;28;20049;-85
2022/01/18 01:06:29;;;;;;;80.72;7.55;;;;;;;;;;4990191;28;20084;-85
2022/01/18 01:08:56;;;;;;;76.85;7.85;;;;;;;;;;5004845;28;20052;-86
2022/01/18 01:11:23;;;;;;;78.43;8.82;;;;;;;;;;5001703;28;20076;-86
2022/01/18 01:13:51;;;;;;;85.70;9.20;;;;;;;;;;5006565;28;20463;-87
2022/01/18 01:46:02;;;;;;;67.00;8.35;;;;;;;;;;5002538;28;20196;-87
2022/01/18 01:48:34;;;;;;;78.20;7.07;;;;;;;;;;5006091;28;20053;-86
2022/01/18 01:51:05;;;;;;;65.93;8.38;;;;;;;;;;5004496;28;20520;-85
2022/01/18 01:53:32;;;;;;;87.63;8.27;;;;;;;;;;4987341;28;20493;-85
2022/01/18 01:55:58;;;;;;;63.58;8.18;;;;;;;;;;5007187;28;20156;-85
2022/01/18 01:58:25;;;;;;;79.43;8.07;;;;;;;;;;5004157;28;20042;-85
2022/01/18 02:00:55;;;;;;;72.13;7.35;;;;;;;;;;4988586;28;20406;-85
2022/01/18 02:03:25;;;;;;;74.70;7.03;;;;;;;;;;4970060;28;20041;-85
2022/01/18 02:05:52;;;;;;;70.45;7.25;;;;;;;;;;4989061;28;20111;-85
2022/01/18 02:08:28;;;;;;;72.15;8.50;;;;;;;;;;4986608;28;20429;-85
2022/01/18 02:10:54;;;;;;;65.50;6.28;;;;;;;;;;5004170;28;20387;-86
2022/01/18 02:13:20;;;;;;;59.42;5.97;;;;;;;;;;5003582;28;20490;-86
2022/01/18 02:24:09;;;;;;;54.28;6.15;;;;;;;;;;4988409;28;20037;-86
2022/01/18 02:26:38;;;;;;;59.35;6.20;;;;;;;;;;5005564;28;20410;-86
2022/01/18 02:29:06;;;;;;;76.70;8.10;;;;;;;;;;4988192;28;20425;-86
2022/01/18 02:31:33;;;;;;;59.22;6.75;;;;;;;;;;4972425;28;20120;-87
2022/01/18 02:34:03;;;;;;;66.90;6.85;;;;;;;;;;5002781;28;20057;-84
2022/01/18 02:36:30;;;;;;;62.80;5.70;;;;;;;;;;4971731;28;20046;-85
2022/01/18 02:38:59;;;;;;;63.22;6.95;;;;;;;;;;4951705;28;20049;-87
2022/01/18 02:41:30;;;;;;;63.75;5.75;;;;;;;;;;5007112;28;20484;-86
2022/01/18 02:44:04;;;;;;;46.28;5.03;;;;;;;;;;4986677;28;20105;-86
2022/01/18 02:46:30;;;;;;;47.50;6.72;;;;;;;;;;4990293;28;20056;-86
2022/01/18 02:48:57;;;;;;;55.00;5.32;;;;;;;;;;5003941;28;20056;-86
2022/01/18 02:51:23;;;;;;;63.65;5.55;;;;;;;;;;5006589;28;20084;-86
2022/01/18 02:54:00;;;;;;;55.25;6.00;;;;;;;;;;4986153;28;20536;-87
2022/01/18 02:56:27;;;;;;;56.22;5.93;;;;;;;;;;4985646;28;20042;-85
2022/01/18 02:59:00;;;;;;;44.30;5.68;;;;;;;;;;4982565;28;20049;-85
2022/01/18 03:04:11;;;;;;;39.80;4.80;;;;;;;;;;4985932;28;20422;-86
2022/01/18 03:06:37;;;;;;;35.40;5.22;;;;;;;;;;4952762;28;20038;-87
2022/01/18 03:09:03;;;;;;;38.63;4.85;;;;;;;;;;4936990;28;20208;-86
2022/01/18 03:11:29;;;;;;;44.22;6.50;;;;;;;;;;4967697;28;20054;-87
2022/01/18 03:13:56;;;;;;;44.72;5.30;;;;;;;;;;4970161;28;20043;-87
2022/01/18 03:16:22;;;;;;;44.47;4.20;;;;;;;;;;4970269;28;20038;-87
2022/01/18 03:18:48;;;;;;;48.75;6.18;;;;;;;;;;4982190;28;20078;-87
2022/01/18 03:21:14;;;;;;;42.67;5.55;;;;;;;;;;4985634;28;20514;-86
2022/01/18 03:23:40;;;;;;;48.03;5.05;;;;;;;;;;4966971;28;20047;-86
2022/01/18 03:26:14;;;;;;;39.30;4.53;;;;;;;;;;4986678;28;20088;-86
2022/01/18 03:28:40;;;;;;;32.38;4.38;;;;;;;;;;4991837;28;20042;-85
2022/01/18 03:31:07;;;;;;;26.20;3.92;;;;;;;;;;4987345;28;20050;-85
2022/01/18 03:33:34;;;;;;;26.00;3.80;;;;;;;;;;4968444;28;20398;-86
2022/01/18 03:36:01;;;;;;;32.20;3.90;;;;;;;;;;4984699;28;20049;-87
2022/01/18 03:38:30;;;;;;;29.98;3.85;;;;;;;;;;4986318;28;20686;-86
2022/01/18 03:41:01;;;;;;;31.00;3.55;;;;;;;;;;4984998;28;20173;-87
2022/01/18 03:43:27;;;;;;;29.70;3.85;;;;;;;;;;4976959;28;20407;-85
2022/01/18 03:46:00;;;;;;;30.20;7.20;;;;;;;;;;4985117;28;20038;-86
2022/01/18 03:48:31;;;;;;;30.58;3.95;;;;;;;;;;4978110;28;20065;-86
2022/01/18 03:51:08;;;;;;;24.20;2.83;;;;;;;;;;4965384;28;20136;-86
2022/01/18 03:53:43;;;;;;;34.55;4.30;;;;;;;;;;4988070;28;20517;-87
2022/01/18 03:56:09;;;;;;;32.35;3.88;;;;;;;;;;4996445;28;20130;-87
2022/01/18 03:58:35;;;;;;;24.67;3.25;;;;;;;;;;4979772;28;20070;-85
2022/01/18 04:01:01;;;;;;;31.23;4.40;;;;;;;;;;4986654;28;20391;-86
2022/01/18 04:03:28;;;;;;;27.40;3.72;;;;;;;;;;4985835;28;20034;-85
2022/01/18 04:05:54;;;;;;;25.30;3.30;;;;;;;;;;5005282;28;20394;-85
2022/01/18 04:08:20;;;;;;;22.48;4.05;;;;;;;;;;4986513;28;20042;-86
2022/01/18 04:10:47;;;;;;;26.95;3.80;;;;;;;;;;4985977;28;20046;-85
2022/01/18 04:13:13;;;;;;;25.85;3.30;;;;;;;;;;5005270;28;20041;-86
2022/01/18 04:15:39;;;;;;;20.27;3.30;;;;;;;;;;4985282;28;20030;-87
2022/01/18 04:18:26;;;;;;;18.98;4.03;;;;;;;;;;5005463;28;20027;-86
2022/01/18 04:28:51;;;;;;;18.75;3.40;;;;;;;;;;5007345;28;20429;-87
2022/01/18 04:31:17;;;;;;;18.35;2.75;;;;;;;;;;4991046;28;20056;-86
2022/01/18 04:33:43;;;;;;;18.90;2.95;;;;;;;;;;4989131;28;20105;-86
2022/01/18 04:36:09;;;;;;;17.63;3.10;;;;;;;;;;4988441;28;20054;-87
2022/01/18 04:38:42;;;;;;;20.90;2.67;;;;;;;;;;5005806;28;20520;-86
2022/01/18 04:41:12;;;;;;;14.85;2.35;;;;;;;;;;4988802;28;20432;-86
2022/01/18 04:49:11;;;;;;;21.27;3.13;;;;;;;;;;4990552;28;20046;-86
2022/01/18 04:51:37;;;;;;;19.27;2.08;;;;;;;;;;4987931;28;20169;-85
2022/01/18 04:54:07;;;;;;;18.00;2.88;;;;;;;;;;4973618;28;20030;-87
2022/01/18 04:59:03;;;;;;;21.30;2.55;;;;;;;;;;4987236;28;20513;-85
2022/01/18 05:01:30;;;;;;;26.80;3.00;;;;;;;;;;4997513;28;20104;-86
2022/01/18 05:03:56;;;;;;;16.73;2.90;;;;;;;;;;4983277;28;20058;-85
2022/01/18 05:06:22;;;;;;;20.10;3.30;;;;;;;;;;5000513;28;20038;-85
2022/01/18 05:08:48;;;;;;;19.45;2.13;;;;;;;;;;4977750;28;20670;-86
2022/01/18 05:11:17;;;;;;;17.90;2.10;;;;;;;;;;4979711;28;20053;-85
2022/01/18 05:21:36;;;;;;;16.30;2.25;;;;;;;;;;4983012;28;20057;-85
2022/01/18 05:24:02;;;;;;;16.15;2.38;;;;;;;;;;4976594;28;20058;-85
2022/01/18 05:26:29;;;;;;;20.95;2.47;;;;;;;;;;4974166;28;20045;-86
2022/01/18 05:28:57;;;;;;;12.02;1.40;;;;;;;;;;4988672;28;20805;-84
2022/01/18 05:31:24;;;;;;;7.97;1.65;;;;;;;;;;4961573;28;20034;-87
2022/01/18 05:33:50;;;;;;;13.65;1.80;;;;;;;;;;4974942;28;20050;-85
2022/01/18 05:36:16;;;;;;;13.50;1.98;;;;;;;;;;4976017;28;20133;-85
2022/01/18 05:38:42;;;;;;;10.60;2.08;;;;;;;;;;4979320;28;20054;-86
2022/01/18 05:41:18;;;;;;;15.23;2.00;;;;;;;;;;4975344;28;20185;-86
2022/01/18 05:43:45;;;;;;;11.77;1.85;;;;;;;;;;4977842;28;20049;-86
2022/01/18 05:46:11;;;;;;;17.13;2.85;;;;;;;;;;4996675;28;20038;-85
2022/01/18 05:48:37;;;;;;;19.02;2.83;;;;;;;;;;4993302;28;20048;-85
2022/01/18 05:51:03;;;;;;;8.57;1.58;;;;;;;;;;4993281;28;20120;-86
2022/01/18 05:53:35;;;;;;;8.10;1.85;;;;;;;;;;4988395;28;20109;-85
2022/01/18 05:56:01;;;;;;;10.77;1.30;;;;;;;;;;4987994;28;20047;-85
2022/01/18 05:58:27;;;;;;;10.82;1.17;;;;;;;;;;4976212;28;20777;-84
2022/01/18 06:00:54;;;;;;;6.57;0.90;;;;;;;;;;5003815;28;20049;-83
2022/01/18 06:03:28;;;;;;;6.47;0.95;;;;;;;;;;5009514;28;20050;-84
2022/01/18 06:08:40;;;;;;;7.13;1.63;;;;;;;;;;5007918;28;20300;-83
2022/01/18 06:11:06;;;;;;;9.88;1.23;;;;;;;;;;4970750;28;20524;-84
2022/01/18 06:13:32;;;;;;;14.00;1.67;;;;;;;;;;4990428;28;20048;-85
2022/01/18 06:15:58;;;;;;;12.68;1.42;;;;;;;;;;4987973;28;20161;-85
2022/01/18 06:18:24;;;;;;;9.95;1.55;;;;;;;;;;5007891;28;20072;-84
2022/01/18 06:20:50;;;;;;;15.90;2.28;;;;;;;;;;5006816;28;20394;-84
2022/01/18 06:23:17;;;;;;;20.42;2.75;;;;;;;;;;5006523;28;20034;-85
2022/01/18 06:25:43;;;;;;;18.95;2.72;;;;;;;;;;4989748;28;20157;-83
2022/01/18 06:28:09;;;;;;;16.10;2.75;;;;;;;;;;4985655;28;20049;-83
2022/01/18 06:30:35;;;;;;;17.98;2.13;;;;;;;;;;4987092;28;20041;-84
2022/01/18 06:33:02;;;;;;;20.40;3.00;;;;;;;;;;5001206;28;20091;-84
2022/01/18 06:35:28;;;;;;;21.13;2.70;;;;;;;;;;5007005;28;20058;-83
2022/01/18 06:37:54;;;;;;;11.75;1.95;;;;;;;;;;5008347;28;20050;-85
2022/01/18 06:40:20;;;;;;;25.95;3.20;;;;;;;;;;4985875;28;20054;-84
2022/01/18 06:42:49;;;;;;;14.85;2.47;;;;;;;;;;5002538;28;20048;-82
2022/01/18 06:45:15;;;;;;;15.45;2.83;;;;;;;;;;5003438;28;20090;-83
2022/01/18 06:47:41;;;;;;;21.73;2.67;;;;;;;;;;4987140;28;20096;-85
2022/01/18 06:50:10;;;;;;;18.08;2.60;;;;;;;;;;4997851;28;20162;-83
2022/01/18 06:52:37;;;;;;;16.02;2.50;;;;;;;;;;4986631;28;20131;-82
2022/01/18 06:55:03;;;;;;;22.23;2.50;;;;;;;;;;4984633;28;20054;-82
2022/01/18 06:57:29;;;;;;;21.25;5.18;;;;;;;;;;5005433;28;20502;-83
2022/01/18 06:59:55;;;;;;;19.30;5.70;;;;;;;;;;4992319;28;20050;-83
2022/01/18 07:02:22;;;;;;;32.85;7.10;;;;;;;;;;5012177;28;20042;-83
2022/01/18 07:04:48;;;;;;;34.40;11.30;;;;;;;;;;4990275;28;20045;-83
2022/01/18 07:07:14;;;;;;;26.63;7.38;;;;;;;;;;4989472;28;20112;-82
2022/01/18 07:09:40;;;;;;;29.08;6.85;;;;;;;;;;4990947;28;20507;-82
2022/01/18 07:12:10;;;;;;;29.15;5.25;;;;;;;;;;5004433;28;20049;-84
2022/01/18 07:14:36;;;;;;;16.15;4.25;;;;;;;;;;5006337;28;20069;-84
2022/01/18 07:17:02;;;;;;;22.05;3.95;;;;;;;;;;4985980;28;20128;-85
2022/01/18 07:19:31;;;;;;;17.00;2.75;;;;;;;;;;4969950;28;20053;-84
2022/01/18 07:21:58;;;;;;;30.00;4.00;;;;;;;;;;4986863;28;20061;-83
2022/01/18 07:24:43;;;;;;;20.30;3.35;;;;;;;;;;5004577;28;20033;-84
2022/01/18 07:27:10;;;;;;;17.75;2.92;;;;;;;;;;5003124;28;21921;-85
2022/01/18 07:29:36;;;;;;;21.45;3.90;;;;;;;;;;4984104;28;20042;-83
2022/01/18 07:32:05;;;;;;;23.70;3.08;;;;;;;;;;5003108;28;20049;-84
2022/01/18 07:34:34;;;;;;;29.55;3.30;;;;;;;;;;4985129;28;20042;-83
2022/01/18 07:37:00;;;;;;;16.17;2.90;;;;;;;;;;5004078;28;20071;-83
2022/01/18 07:39:26;;;;;;;17.08;3.08;;;;;;;;;;5004005;28;20037;-83
2022/01/18 07:41:52;;;;;;;14.85;3.13;;;;;;;;;;4987326;28;20069;-84
2022/01/18 07:44:18;;;;;;;17.88;3.50;;;;;;;;;;4985925;28;20073;-84
2022/01/18 07:46:44;;;;;;;20.05;3.63;;;;;;;;;;4987729;28;20041;-84
2022/01/18 07:49:10;;;;;;;16.83;3.33;;;;;;;;;;4989632;28;20049;-86
2022/01/18 07:51:36;;;;;;;19.58;3.88;;;;;;;;;;4970292;28;20046;-83
2022/01/18 07:54:02;;;;;;;21.17;3.28;;;;;;;;;;4988210;28;20041;-83
2022/01/18 07:56:28;;;;;;;13.23;3.05;;;;;;;;;;5005572;28;20045;-84
2022/01/18 07:58:54;;;;;;;15.63;3.22;;;;;;;;;;4989004;28;20536;-85
2022/01/18 08:01:21;;;;;;;15.68;2.67;;;;;;;;;;5004568;28;20521;-84
2022/01/18 08:03:47;;;;;;;14.55;3.25;;;;;;;;;;4972879;28;20124;-84
2022/01/18 08:06:13;;;;;;;19.40;3.30;;;;;;;;;;4990367;28;20058;-84
2022/01/18 08:08:39;;;;;;;16.63;3.78;;;;;;;;;;5006745;28;20096;-85
2022/01/18 08:11:08;;;;;;;20.30;4.35;;;;;;;;;;4991074;28;20553;-86
2022/01/18 08:13:40;;;;;;;16.00;3.88;;;;;;;;;;4989095;28;20057;-87
2022/01/18 08:16:22;;;;;;;15.73;3.47;;;;;;;;;;4975176;28;20056;-86
2022/01/18 08:18:49;;;;;;;18.08;3.55;;;;;;;;;;4990186;28;20462;-86
2022/01/18 08:21:16;;;;;;;11.07;2.78;;;;;;;;;;4991976;28;20053;-86
2022/01/18 08:23:42;;;;;;;13.25;3.47;;;;;;;;;;4994055;28;20042;-85
2022/01/18 08:26:08;;;;;;;10.27;2.92;;;;;;;;;;5006997;28;20049;-88
2022/01/18 08:28:34;;;;;;;10.65;3.20;;;;;;;;;;4972396;28;20100;-84
2022/01/18 08:31:00;;;;;;;18.05;3.42;;;;;;;;;;5005323;28;20049;-85
2022/01/18 08:33:26;;;;;;;18.38;3.42;;;;;;;;;;4987702;28;20161;-85
2022/01/18 08:35:52;;;;;;;20.58;3.05;;;;;;;;;;4987180;28;20088;-85
2022/01/18 08:38:18;;;;;;;15.93;3.33;;;;;;;;;;5005917;28;20033;-83
2022/01/18 08:40:44;;;;;;;19.65;3.90;;;;;;;;;;4988402;28;20030;-86
2022/01/18 08:43:11;;;;;;;20.77;3.88;;;;;;;;;;4970523;28;20042;-84
2022/01/18 08:45:37;;;;;;;13.88;3.22;;;;;;;;;;5007279;28;20046;-85
2022/01/18 08:48:03;;;;;;;15.18;3.63;;;;;;;;;;5001793;28;20547;-85
2022/01/18 08:50:31;;;;;;;13.18;4.00;;;;;;;;;;5005608;28;20505;-84
2022/01/18 08:52:57;;;;;;;14.27;3.90;;;;;;;;;;4972882;28;20046;-85
2022/01/18 08:55:23;;;;;;;21.45;4.22;;;;;;;;;;5004919;28;20045;-84
2022/01/18 08:57:49;;;;;;;10.32;3.30;;;;;;;;;;5005489;28;20030;-84
2022/01/18 09:00:16;;;;;;;12.50;3.72;;;;;;;;;;4985679;28;20133;-84
2022/01/18 09:02:42;;;;;;;15.93;4.43;;;;;;;;;;5006358;28;20046;-85
2022/01/18 09:05:09;;;;;;;16.75;3.10;;;;;;;;;;5005200;28;20107;-84
2022/01/18 09:07:37;;;;;;;11.85;3.92;;;;;;;;;;5009390;28;20077;-86
2022/01/18 09:10:10;;;;;;;14.18;3.80;;;;;;;;;;4974384;28;20405;-86
2022/01/18 09:12:36;;;;;;;21.75;5.03;;;;;;;;;;5009834;28;20089;-85
2022/01/18 09:15:05;;;;;;;16.55;3.15;;;;;;;;;;4996108;28;20068;-85
2022/01/18 09:17:33;;;;;;;16.35;4.00;;;;;;;;;;5017008;28;20038;-82
2022/01/18 09:20:00;;;;;;;16.63;3.50;;;;;;;;;;5016162;28;20170;-83
2022/01/18 09:22:26;;;;;;;25.13;4.95;;;;;;;;;;4991428;28;20042;-84
2022/01/18 09:24:52;;;;;;;13.13;3.28;;;;;;;;;;5010370;28;20057;-86
2022/01/18 09:27:28;;;;;;;16.10;3.85;;;;;;;;;;4991650;28;20045;-83
2022/01/18 09:29:54;;;;;;;26.20;3.85;;;;;;;;;;5008128;28;20103;-84
2022/01/18 09:32:21;;;;;;;24.23;4.60;;;;;;;;;;5009455;28;20476;-85
2022/01/18 09:34:47;;;;;;;29.42;4.72;;;;;;;;;;5007460;28;20100;-81
2022/01/18 09:37:13;;;;;;;15.43;4.50;;;;;;;;;;5008703;28;20038;-81
2022/01/18 09:39:39;;;;;;;15.27;3.63;;;;;;;;;;5008352;28;20627;-83
2022/01/18 09:42:05;;;;;;;33.38;4.40;;;;;;;;;;4992081;28;20401;-83
2022/01/18 09:44:31;;;;;;;24.05;4.30;;;;;;;;;;4988856;28;20064;-83
2022/01/18 09:47:04;;;;;;;19.27;3.70;;;;;;;;;;5009283;28;20060;-82
2022/01/18 09:49:30;;;;;;;16.75;4.03;;;;;;;;;;4987261;28;20054;-83
2022/01/18 09:51:56;;;;;;;22.45;4.15;;;;;;;;;;5006119;28;20079;-82
2022/01/18 09:54:22;;;;;;;23.48;4.75;;;;;;;;;;5008507;28;20056;-84
2022/01/18 09:56:48;;;;;;;24.13;5.30;;;;;;;;;;5006911;28;21441;-82
2022/01/18 09:59:15;;;;;;;24.13;5.38;;;;;;;;;;5007978;28;20799;-83
2022/01/18 10:01:41;;;;;;;18.42;4.70;;;;;;;;;;5006492;28;20125;-82
2022/01/18 10:04:14;;;;;;;25.27;4.78;;;;;;;;;;4990801;28;20045;-82
2022/01/18 10:06:41;;;;;;;26.30;6.17;;;;;;;;;;5006510;28;20053;-83
2022/01/18 10:09:11;;;;;;;24.75;6.03;;;;;;;;;;4974353;28;20394;-82
2022/01/18 10:11:57;;;;;;;63.45;8.05;;;;;;;;;;4989474;28;20046;-82
2022/01/18 10:14:23;;;;;;;29.38;5.22;;;;;;;;;;4971284;28;20042;-83
2022/01/18 10:16:49;;;;;;;27.40;6.35;;;;;;;;;;5009383;28;20058;-83
2022/01/18 10:19:28;;;;;;;17.15;4.15;;;;;;;;;;5006688;28;20042;-86
2022/01/18 10:21:56;;;;;;;19.30;5.32;;;;;;;;;;4990562;28;20077;-83
2022/01/18 10:24:26;;;;;;;18.63;4.82;;;;;;;;;;5008779;28;20486;-84
2022/01/18 10:26:53;;;;;;;24.73;4.75;;;;;;;;;;5005965;28;20100;-85
2022/01/18 10:29:20;;;;;;;18.58;5.40;;;;;;;;;;5008658;28;20092;-82
2022/01/18 10:34:25;;;;;;;13.00;4.10;;;;;;;;;;5005209;28;20041;-82
2022/01/18 10:37:00;;;;;;;16.80;4.38;;;;;;;;;;4972186;28;20054;-83
2022/01/18 10:39:27;;;;;;;23.45;3.78;;;;;;;;;;5006929;28;20042;-83
2022/01/18 10:41:53;;;;;;;22.15;5.30;;;;;;;;;;5007414;28;20052;-84
2022/01/18 10:44:20;;;;;;;45.75;5.65;;;;;;;;;;4988853;28;20077;-83
2022/01/18 10:46:48;;;;;;;23.77;3.78;;;;;;;;;;4990163;28;20069;-83
2022/01/18 10:49:35;;;;;;;18.00;3.33;;;;;;;;;;5005949;28;20038;-84
2022/01/18 10:52:11;;;;;;;42.97;4.18;;;;;;;;;;4989007;28;20068;-84
2022/01/18 10:54:45;;;;;;;68.15;5.07;;;;;;;;;;5006507;28;20045;-84
2022/01/18 10:57:12;;;;;;;24.08;2.30;;;;;;;;;;5004317;28;20037;-85
2022/01/18 10:59:38;;;;;;;12.73;2.15;;;;;;;;;;5006391;28;20050;-84
2022/01/18 11:02:18;;;;;;;13.30;2.63;;;;;;;;;;4986734;28;20053;-84
2022/01/18 11:04:46;;;;;;;18.20;2.90;;;;;;;;;;5007826;28;20401;-86
2022/01/18 11:07:12;;;;;;;16.67;2.63;;;;;;;;;;5006728;28;20164;-86
2022/01/18 11:09:39;;;;;;;21.08;3.25;;;;;;;;;;5006609;28;20599;-85
2022/01/18 11:12:06;;;;;;;16.70;2.63;;;;;;;;;;5007104;28;20042;-84
2022/01/18 11:14:33;;;;;;;16.58;3.08;;;;;;;;;;5004041;28;20504;-85
2022/01/18 11:17:00;;;;;;;37.17;3.58;;;;;;;;;;5008293;28;20515;-86
2022/01/18 11:21:57;;;;;;;16.52;2.80;;;;;;;;;;5007941;28;20132;-84
2022/01/18 11:24:23;;;;;;;26.60;3.63;;;;;;;;;;5007968;28;20049;-84
2022/01/18 11:26:49;;;;;;;39.95;5.57;;;;;;;;;;5014961;28;20058;-84
2022/01/18 11:29:17;;;;;;;16.45;3.88;;;;;;;;;;5017488;28;20473;-84
2022/01/18 11:31:47;;;;;;;55.38;4.93;;;;;;;;;;4990900;28;20033;-85
2022/01/18 11:34:17;;;;;;;19.67;3.65;;;;;;;;;;5005437;28;20052;-83
2022/01/18 11:36:46;;;;;;;11.23;2.85;;;;;;;;;;5003085;28;20454;-86
2022/01/18 11:39:12;;;;;;;298.20;20.10;;;;;;;;;;5007144;28;20049;-86
2022/01/18 11:41:39;;;;;;;478.02;24.88;;;;;;;;;;5004614;28;20141;-84
2022/01/18 11:44:11;;;;;;;270.23;16.45;;;;;;;;;;5007183;28;20057;-83
2022/01/18 11:46:40;;;;;;;46.63;5.60;;;;;;;;;;4987465;28;20042;-85
2022/01/18 11:49:08;;;;;;;13.90;3.03;;;;;;;;;;4971418;28;20100;-83
2022/01/18 11:51:37;;;;;;;22.35;4.70;;;;;;;;;;5003221;28;20050;-83
2022/01/18 11:54:40;;;;;;;17.65;4.30;;;;;;;;;;5006188;28;20512;-84
2022/01/18 11:57:24;;;;;;;27.67;4.78;;;;;;;;;;4997016;28;20060;-81
2022/01/18 11:59:50;;;;;;;;;;;;;;;;;;5005580;28;20084;-84
2022/01/18 12:02:27;;;;;;;17.00;4.43;;;;;;;;;;5005539;28;19964;-86
2022/01/18 12:05:06;;;;;;;19.00;3.92;;;;;;;;;;5006011;28;20042;-84
2022/01/18 12:07:38;;;;;;;18.17;4.40;;;;;;;;;;5004880;28;20038;-83
2022/01/18 12:10:34;;;;;;;13.57;3.65;;;;;;;;;;4988349;28;20061;-85
2022/01/18 12:13:05;;;;;;;20.63;4.28;;;;;;;;;;4990003;28;20053;-85
2022/01/18 12:15:56;;;;;;;25.30;6.13;;;;;;;;;;5007392;28;20046;-86
2022/01/18 12:18:29;;;;;;;16.73;4.43;;;;;;;;;;5007334;28;20053;-86
2022/01/18 12:20:57;;;;;;;22.52;4.65;;;;;;;;;;4972135;28;20127;-86
2022/01/18 12:23:43;;;;;;;20.45;4.70;;;;;;;;;;5007237;28;20041;-85
2022/01/18 12:26:38;;;;;;;18.83;4.72;;;;;;;;;;4987184;28;20045;-85
2022/01/18 12:34:31;;;;;;;120.63;9.00;;;;;;;;;;4988999;28;20061;-86
2022/01/18 12:37:24;;;;;;;44.13;5.82;;;;;;;;;;5006334;28;20510;-86
2022/01/18 12:45:00;;;;;;;18.27;4.28;;;;;;;;;;5010532;28;20054;-86
2022/01/18 12:47:27;;;;;;;33.35;5.20;;;;;;;;;;4975933;28;20417;-88
2022/01/18 12:49:53;;;;;;;85.75;6.35;;;;;;;;;;4992595;28;20568;-86
2022/01/18 12:52:25;;;;;;;10.90;3.03;;;;;;;;;;4975060;28;20054;-87
2022/01/18 12:55:02;;;;;;;15.07;3.05;;;;;;;;;;5001227;28;20081;-87
2022/01/18 12:57:54;;;;;;;11.82;3.60;;;;;;;;;;4994980;28;20054;-86
2022/01/18 13:00:21;;;;;;;9.38;3.10;;;;;;;;;;5010978;28;20436;-87
2022/01/18 13:02:47;;;;;;;12.32;3.80;;;;;;;;;;4975253;28;20104;-86
2022/01/18 13:05:13;;;;;;;16.80;3.55;;;;;;;;;;5012382;28;20046;-87
2022/01/18 13:07:50;;;;;;;11.00;3.00;;;;;;;;;;4991906;28;20046;-87
2022/01/18 13:10:16;;;;;;;12.10;4.05;;;;;;;;;;4994207;28;20504;-87
2022/01/18 13:12:44;;;;;;;16.90;4.15;;;;;;;;;;4975837;28;20097;-86
2022/01/18 13:15:13;;;;;;;18.35;4.32;;;;;;;;;;5011641;28;20065;-87
2022/01/18 13:23:42;;;;;;;38.67;5.90;;;;;;;;;;4993037;28;20050;-86
2022/01/18 13:26:08;;;;;;;19.02;5.00;;;;;;;;;;4983658;28;20085;-81
2022/01/18 13:28:35;;;;;;;13.40;3.97;;;;;;;;;;4993735;28;20045;-81
2022/01/18 13:31:18;;;;;;;21.08;5.00;;;;;;;;;;4991270;28;20050;-82
2022/01/18 13:33:58;;;;;;;82.82;10.02;;;;;;;;;;5005717;28;20053;-82
2022/01/18 13:36:27;;;;;;;18.75;5.63;;;;;;;;;;5016088;28;20076;-85
2022/01/18 13:38:53;;;;;;;18.58;7.18;;;;;;;;;;4999984;28;20045;-84
2022/01/18 13:41:20;;;;;;;37.08;7.65;;;;;;;;;;5005918;28;20057;-81
2022/01/18 13:43:47;;;;;;;22.63;6.03;;;;;;;;;;5008293;28;20046;-81
2022/01/18 13:46:22;;;;;;;21.58;5.65;;;;;;;;;;4991378;28;20056;-81
2022/01/18 13:48:48;;;;;;;23.50;5.60;;;;;;;;;;5007580;28;20088;-83
2022/01/18 13:51:15;;;;;;;19.33;5.80;;;;;;;;;;5008907;28;20413;-86
2022/01/18 13:53:42;;;;;;;53.15;7.32;;;;;;;;;;4973684;28;20096;-84
2022/01/18 13:56:17;;;;;;;185.48;13.20;;;;;;;;;;5007139;28;20045;-82
2022/01/18 13:58:44;;;;;;;67.05;8.25;;;;;;;;;;5007164;28;20085;-84
2022/01/18 14:01:14;;;;;;;17.15;5.55;;;;;;;;;;5007476;28;20050;-85
2022/01/18 14:03:41;;;;;;;19.55;6.38;;;;;;;;;;4991227;28;20751;-85
2022/01/18 14:06:08;;;;;;;24.90;6.07;;;;;;;;;;4988634;28;20523;-86
2022/01/18 14:08:36;;;;;;;22.08;6.35;;;;;;;;;;4973715;28;20199;-85
2022/01/18 14:11:03;;;;;;;17.88;5.63;;;;;;;;;;4991167;28;20049;-84
2022/01/18 14:13:35;;;;;;;18.83;4.75;;;;;;;;;;4964532;28;20160;-82
2022/01/18 14:16:25;;;;;;;24.42;6.05;;;;;;;;;;4950382;28;20120;-85
2022/01/18 14:19:00;;;;;;;33.85;7.75;;;;;;;;;;4964535;28;20055;-84
2022/01/18 14:21:26;;;;;;;17.52;5.88;;;;;;;;;;4968974;28;20161;-86
2022/01/18 14:24:11;;;;;;;25.27;8.80;;;;;;;;;;4966590;28;20065;-83
2022/01/18 14:26:40;;;;;;;24.95;8.32;;;;;;;;;;4950363;28;20499;-84
2022/01/18 14:29:07;;;;;;;166.00;19.67;;;;;;;;;;4951594;28;20369;-83
2022/01/18 14:31:33;;;;;;;37.80;10.63;;;;;;;;;;4966523;28;20039;-85
2022/01/18 14:33:59;;;;;;;68.55;10.75;;;;;;;;;;4968072;28;20062;-85
2022/01/18 14:36:25;;;;;;;22.23;7.45;;;;;;;;;;4963601;28;20039;-85
2022/01/18 14:39:10;;;;;;;79.18;9.15;;;;;;;;;;4950706;28;20146;-85
2022/01/18 14:41:36;;;;;;;52.72;9.38;;;;;;;;;;4952572;28;20042;-83
2022/01/18 14:44:13;;;;;;;34.13;8.02;;;;;;;;;;4978385;28;20559;-84
2022/01/18 14:46:58;;;;;;;51.47;7.88;;;;;;;;;;5010295;28;20069;-84
2022/01/18 14:49:24;;;;;;;53.33;8.88;;;;;;;;;;5007223;28;20497;-83
2022/01/18 14:51:50;;;;;;;24.17;7.00;;;;;;;;;;4976232;28;20374;-81
2022/01/18 14:54:16;;;;;;;17.33;6.35;;;;;;;;;;5008548;28;20045;-84
2022/01/18 14:56:45;;;;;;;23.90;6.53;;;;;;;;;;4992894;28;20080;-84
2022/01/18 14:59:12;;;;;;;31.67;7.55;;;;;;;;;;4979752;28;20046;-81
2022/01/18 15:01:41;;;;;;;32.72;8.15;;;;;;;;;;4970108;28;20073;-82
2022/01/18 15:04:11;;;;;;;19.02;7.15;;;;;;;;;;5006777;28;20073;-81
2022/01/18 15:06:37;;;;;;;27.75;7.80;;;;;;;;;;5004783;28;20464;-82
2022/01/18 15:09:03;;;;;;;21.45;6.50;;;;;;;;;;4990029;28;20056;-82
2022/01/18 15:11:29;;;;;;;21.55;6.82;;;;;;;;;;5005113;28;20092;-82
2022/01/18 15:13:55;;;;;;;24.08;7.13;;;;;;;;;;4988575;28;20046;-82
2022/01/18 15:16:21;;;;;;;21.77;7.22;;;;;;;;;;4993061;28;20054;-82
2022/01/18 15:18:48;;;;;;;20.42;6.97;;;;;;;;;;5024599;28;20318;-83
2022/01/18 15:21:14;;;;;;;27.83;8.38;;;;;;;;;;5010462;28;20679;-83
2022/01/18 15:23:50;;;;;;;23.02;7.68;;;;;;;;;;5013129;28;20038;-83
2022/01/18 15:26:16;;;;;;;18.90;6.28;;;;;;;;;;4988692;28;20104;-83
2022/01/18 15:28:42;;;;;;;23.48;6.82;;;;;;;;;;4986420;28;20038;-82
2022/01/18 15:31:08;;;;;;;24.95;8.27;;;;;;;;;;5006592;28;20042;-83
2022/01/18 15:33:34;;;;;;;24.95;9.30;;;;;;;;;;5003688;28;20449;-81
2022/01/18 15:36:00;;;;;;;45.33;8.70;;;;;;;;;;5000829;28;20041;-81
2022/01/18 15:38:26;;;;;;;20.70;7.22;;;;;;;;;;4997400;28;20136;-82
2022/01/18 15:40:52;;;;;;;23.73;8.93;;;;;;;;;;4999273;28;20050;-81
2022/01/18 15:43:18;;;;;;;23.23;7.85;;;;;;;;;;5003942;28;20073;-80
2022/01/18 15:45:47;;;;;;;23.00;7.80;;;;;;;;;;5005561;28;20509;-82
2022/01/18 15:48:13;;;;;;;19.92;7.25;;;;;;;;;;5007983;28;20084;-81
2022/01/18 15:50:39;;;;;;;23.20;7.68;;;;;;;;;;5005133;28;20048;-80
2022/01/18 15:53:05;;;;;;;19.25;7.88;;;;;;;;;;5008075;28;20045;-81
2022/01/18 15:55:31;;;;;;;24.15;6.88;;;;;;;;;;5004534;28;20050;-80
2022/01/18 15:58:02;;;;;;;20.08;7.28;;;;;;;;;;5007527;28;20050;-80
2022/01/18 16:00:29;;;;;;;20.40;6.72;;;;;;;;;;5006130;28;20093;-80
2022/01/18 16:02:55;;;;;;;20.30;6.22;;;;;;;;;;5006240;28;20467;-81
2022/01/18 16:05:21;;;;;;;15.90;6.80;;;;;;;;;;5004380;28;20058;-81
2022/01/18 16:07:47;;;;;;;24.08;8.23;;;;;;;;;;5003121;28;20537;-80
2022/01/18 16:10:14;;;;;;;26.48;8.63;;;;;;;;;;5004512;28;20038;-80
2022/01/18 16:12:40;;;;;;;26.17;8.13;;;;;;;;;;4983516;28;20050;-82
2022/01/18 16:15:06;;;;;;;25.90;8.07;;;;;;;;;;5004347;28;20465;-80
2022/01/18 16:17:33;;;;;;;22.52;8.95;;;;;;;;;;5004476;28;20077;-81
2022/01/18 16:20:00;;;;;;;26.92;9.60;;;;;;;;;;5007427;28;21028;-81